ADDS METAR Data INFO
IDs: Format: Raw Decoded Include TAF

Data at: 0919 UTC 13 Dec 2017

KEDN 130915Z AUTO 34004KT 10SM CLR 02/M02 A3010 RMK AO2 T00221025
KEDN 130855Z AUTO 33006KT 10SM CLR 03/M02 A3009 RMK AO2 T00261025
KEDN 130835Z AUTO 33006KT 10SM CLR 03/M02 A3009 RMK AO2 T00281024
KEDN 130815Z AUTO 34006KT 10SM CLR 03/M01 A3009 RMK AO2 T00301015
KEDN 130755Z AUTO 33005KT 10SM CLR 03/M01 A3009 RMK AO2 T00331011
KEDN 130735Z AUTO 34006KT 10SM CLR 04/M01 A3009 RMK AO2 T00361006
KEDN 130715Z AUTO 34006KT 10SM CLR 04/00 A3008 RMK AO2 T00401005
KEDN 130655Z AUTO 34005KT 10SM CLR 04/00 A3008 RMK AO2 T00421002
KEDN 130635Z AUTO 34006KT 10SM CLR 04/00 A3007 RMK AO2 T00440000
KEDN 130615Z AUTO 34005KT 10SM CLR 05/00 A3008 RMK AO2 T00450001
KEDN 130555Z AUTO 34005KT 10SM CLR 05/00 A3008 RMK AO2 T00500001 10086 20050
KEDN 130535Z AUTO 34006KT 10SM CLR 06/00 A3008 RMK AO2 T00550000
KEDN 130515Z AUTO 34005KT 10SM CLR 06/00 A3009 RMK AO2 T00570001
KEDN 130455Z AUTO 33005KT 10SM CLR 06/00 A3009 RMK AO2 T00590002 401410059
KEDN 130435Z AUTO 32005KT 10SM CLR 06/00 A3009 RMK AO2 T00610002
KEDN 130415Z AUTO 33005KT 10SM CLR 06/00 A3009 RMK AO2 T00620004
KEDN 130355Z AUTO 33003KT 10SM CLR 06/01 A3008 RMK AO2 T00620009
KEDN 130335Z AUTO 32004KT 10SM CLR 06/01 A3008 RMK AO2 T00630010
KEDN 130315Z AUTO 32004KT 10SM CLR 06/01 A3008 RMK AO2 T00620013
KEDN 130255Z AUTO 32003KT 10SM CLR 06/02 A3009 RMK AO2 T00640015
KEDN 130235Z AUTO 00000KT 10SM CLR 07/02 A3008 RMK AO2 T00650015
KEDN 130215Z AUTO 32003KT 10SM CLR 07/02 A3008 RMK AO2 T00680015
KEDN 130155Z AUTO 32003KT 10SM CLR 07/02 A3008 RMK AO2 T00700015
KEDN 130140Z AUTO 00000KT 10SM CLR 07/02 A3007 RMK AO2 T00720015
KEDN 130110Z AUTO 00000KT 10SM CLR 07/02 A3006 RMK AO2 T00730020
KEDN 130055Z AUTO 00000KT 10SM CLR 07/02 A3006 RMK AO2 T00730021
KEDN 130035Z AUTO 00000KT 10SM CLR 08/02 A3005 RMK AO2 T00750022
KEDN 130015Z AUTO 00000KT 10SM CLR 08/02 A3004 RMK AO2 T00830017
KEDN 122355Z AUTO 00000KT 10SM CLR 09/01 A3003 RMK AO2 T00870014 10141 20087
KEDN 122335Z AUTO 00000KT 10SM CLR 10/01 A3003 RMK AO2 T00970010
KEDN 122315Z AUTO 32005KT 10SM CLR 10/01 A3002 RMK AO2 T01040007
KEDN 122255Z AUTO 33006KT 10SM CLR 11/01 A3002 RMK AO2 T01100006
KEDN 122235Z AUTO 32005KT 10SM CLR 12/01 A3001 RMK AO2 T01160010
KEDN 122215Z AUTO 31008KT 10SM CLR 12/01 A3000 RMK AO2 T01220006
KEDN 122155Z AUTO 33007G18KT 10SM CLR 13/01 A3000 RMK AO2 T01260005
KEDN 122135Z AUTO 34011G18KT 10SM CLR 13/01 A3000 RMK AO2 T01310005
KEDN 122115Z AUTO 32010G16KT 10SM CLR 13/00 A2999 RMK AO2 T01330002
KEDN 122055Z AUTO 34008G15KT 10SM CLR 14/00 A2998 RMK AO2 T01360004
KEDN 122035Z AUTO 33012G20KT 10SM CLR 14/00 A2998 RMK AO2 T01370002
KEDN 122015Z AUTO 34011G24KT 10SM CLR 14/00 A2999 RMK AO2 T01380000
KEDN 121955Z AUTO 33012G20KT 10SM CLR 14/00 A2999 RMK AO2 T01380001
KEDN 121935Z AUTO 32010G19KT 10SM CLR 14/00 A2998 RMK AO2 T01380000
KEDN 121915Z AUTO 33014G20KT 10SM CLR 14/00 A2998 RMK AO2 T01400001
KEDN 121855Z AUTO 33015G21KT 10SM CLR 14/00 A2998 RMK AO2 T01351001
KEDN 121835Z AUTO 33008G21KT 300V360 10SM CLR 14/00 A2999 RMK AO2 T01350003
KEDN 121815Z AUTO 34012G18KT 10SM CLR 14/00 A3000 RMK AO2 T01360004
KEDN 121755Z AUTO 34011G18KT 10SM CLR 14/00 A3001 RMK AO2 T01350001 10135 20063
KEDN 121735Z AUTO 34016G24KT 310V010 10SM CLR 13/00 A3002 RMK AO2 T01301004
KEDN 121715Z AUTO 33015G23KT 10SM CLR 13/00 A3003 RMK AO2 T01270000
KEDN 121655Z AUTO 32012G19KT 10SM CLR 13/00 A3003 RMK AO2 T01280002
KEDN 121635Z AUTO 34009G23KT 10SM CLR 13/01 A3004 RMK AO2 T01250006
KEDN 121615Z AUTO 33012G21KT 310V010 10SM CLR 12/01 A3004 RMK AO2 T01190010
KEDN 121555Z AUTO 33013G22KT 10SM CLR 11/01 A3005 RMK AO2 T01140012
KEDN 121535Z AUTO 33011G18KT 10SM CLR 11/02 A3004 RMK AO2 T01120019
KEDN 121515Z AUTO 33011G16KT 10SM CLR 11/03 A3003 RMK AO2 T01070026
KEDN 121455Z AUTO 33009G16KT 10SM CLR 10/03 A3002 RMK AO2 T01010034
KEDN 121435Z AUTO 31009KT 10SM CLR 09/04 A3001 RMK AO2 T00920040
KEDN 121415Z AUTO 32005KT 10SM CLR 09/05 A3000 RMK AO2 T00850047
KEDN 121355Z AUTO 32007KT 10SM CLR 08/05 A2999 RMK AO2 T00800051
KEDN 121335Z AUTO 31005KT 10SM CLR 07/05 A2999 RMK AO2 T00740053
KEDN 121315Z AUTO 32004KT 10SM CLR 07/05 A2998 RMK AO2 T00680053
KEDN 121255Z AUTO 28003KT 10SM CLR 07/06 A2997 RMK AO2 T00660055
KEDN 121235Z AUTO 28004KT 10SM CLR 07/06 A2997 RMK AO2 T00650055
KEDN 121215Z AUTO 28004KT 10SM CLR 07/06 A2997 RMK AO2 T00650057
KEDN 121155Z AUTO 00000KT 10SM CLR 07/06 A2996 RMK AO2 T00650059 10080 20062
KEDN 121135Z AUTO 26004KT 10SM CLR 07/06 A2995 RMK AO2 T00650060
KEDN 121115Z AUTO 27003KT 10SM CLR 07/06 A2996 RMK AO2 T00670061
KEDN 121055Z AUTO 27003KT 10SM CLR 07/06 A2995 RMK AO2 T00660061
KEDN 121035Z AUTO 26003KT 10SM CLR 06/06 A2995 RMK AO2 T00640061
KEDN 121015Z AUTO 00000KT 10SM CLR 06/06 A2995 RMK AO2 T00630060
KEDN 120955Z AUTO 00000KT 10SM CLR 06/06 A2995 RMK AO2 T00620059
KEDN 120935Z AUTO 22004KT 10SM CLR 07/06 A2996 RMK AO2 T00670061
KEDN 120915Z AUTO 00000KT 10SM CLR 08/07 A2997 RMK AO2 T00760066
KEDN 120855Z AUTO 26003KT 10SM CLR 08/07 A2997 RMK AO2 T00800066
KEDN 120835Z AUTO 26003KT 10SM CLR 08/07 A2999 RMK AO2 T00760065
KEDN 120815Z AUTO 00000KT 10SM CLR 07/06 A3000 RMK AO2 T00730064
KEDN 120755Z AUTO 00000KT 10SM CLR 07/06 A3000 RMK AO2 T00720064
KEDN 120735Z AUTO 24003KT 10SM CLR 07/06 A3001 RMK AO2 T00670061
KEDN 120715Z AUTO 22003KT 10SM CLR 07/06 A3001 RMK AO2 T00680060
KEDN 120655Z AUTO 23003KT 10SM CLR 07/06 A3002 RMK AO2 T00730062
KEDN 120635Z AUTO 23003KT 10SM CLR 07/06 A3002 RMK AO2 T00740062
KEDN 120615Z AUTO 00000KT 10SM CLR 07/06 A3003 RMK AO2 T00720061
KEDN 120555Z AUTO 24003KT 10SM CLR 08/06 A3003 RMK AO2 T00750061 10114 20071
KEDN 120535Z AUTO 23004KT 10SM CLR 08/06 A3004 RMK AO2 T00760061
KEDN 120515Z AUTO 00000KT 10SM CLR 07/06 A3005 RMK AO2 T00730059
KEDN 120455Z AUTO 23003KT 10SM CLR 08/06 A3006 RMK AO2 T00780060 401721015
KEDN 120435Z AUTO 26003KT 10SM CLR 08/06 A3006 RMK AO2 T00790056
KEDN 120415Z AUTO 24003KT 10SM CLR 08/05 A3008 RMK AO2 T00780053
KEDN 120355Z AUTO 23003KT 10SM CLR 08/05 A3008 RMK AO2 T00800050
KEDN 120335Z AUTO 00000KT 10SM CLR 08/05 A3008 RMK AO2 T00810049
KEDN 120315Z AUTO 23003KT 10SM CLR 08/05 A3008 RMK AO2 T00820047
KEDN 120255Z AUTO 22003KT 10SM CLR 08/04 A3009 RMK AO2 T00780042
KEDN 120235Z AUTO 22004KT 10SM CLR 09/04 A3009 RMK AO2 T00870042
KEDN 120215Z AUTO 23003KT 10SM CLR 09/04 A3009 RMK AO2 T00910040
KEDN 120155Z AUTO 22004KT 10SM CLR 09/04 A3008 RMK AO2 T00900036
KEDN 120135Z AUTO 23003KT 10SM CLR 10/04 A3009 RMK AO2 T00990035
KEDN 120115Z AUTO 21005KT 10SM CLR 10/03 A3009 RMK AO2 T00980034
KEDN 120055Z AUTO 20005KT 10SM CLR 10/03 A3008 RMK AO2 T01000028
KEDN 120035Z AUTO 20004KT 10SM CLR 10/03 A3009 RMK AO2 T01000033
KEDN 120015Z AUTO 21004KT 10SM CLR 11/04 A3009 RMK AO2 T01100035
KEDN 112355Z AUTO 21004KT 10SM CLR 11/04 A3009 RMK AO2 T01110035 10172 20111
KEDN 112335Z AUTO 21003KT 10SM CLR 12/03 A3010 RMK AO2 T01180033
KEDN 112315Z AUTO 00000KT 10SM CLR 12/03 A3010 RMK AO2 T01180034
KEDN 112255Z AUTO 21003KT 10SM CLR 13/03 A3010 RMK AO2 T01330033
KEDN 112235Z AUTO 21004KT 10SM CLR 15/03 A3010 RMK AO2 T01470030
KEDN 112215Z AUTO 22004KT 10SM CLR 16/03 A3010 RMK AO2 T01570025
KEDN 112155Z AUTO 23004KT 10SM CLR 16/02 A3010 RMK AO2 T01610023
KEDN 112135Z AUTO 23004KT 10SM CLR 17/03 A3011 RMK AO2 T01670028